sensor_id;sensor_type;location;lat;lon;timestamp;P1;durP1;ratioP1;P2;durP2;ratioP2
9801;SDS011;4940;50.900;4.672;2022-11-23T00:01:09;4.60;;;1.23;;
9801;SDS011;4940;50.900;4.672;2022-11-23T00:03:41;3.38;;;1.17;;
9801;SDS011;4940;50.900;4.672;2022-11-23T00:06:08;7.60;;;1.48;;
9801;SDS011;4940;50.900;4.672;2022-11-23T00:08:36;10.23;;;1.65;;
9801;SDS011;4940;50.900;4.672;2022-11-23T00:11:03;7.15;;;1.52;;
9801;SDS011;4940;50.900;4.672;2022-11-23T00:13:32;8.38;;;1.33;;
9801;SDS011;4940;50.900;4.672;2022-11-23T00:16:00;3.28;;;1.23;;
9801;SDS011;4940;50.900;4.672;2022-11-23T00:18:28;4.40;;;1.50;;
9801;SDS011;4940;50.900;4.672;2022-11-23T00:20:56;6.15;;;1.48;;
9801;SDS011;4940;50.900;4.672;2022-11-23T00:23:23;6.28;;;1.42;;
9801;SDS011;4940;50.900;4.672;2022-11-23T00:25:51;9.50;;;1.58;;
9801;SDS011;4940;50.900;4.672;2022-11-23T00:28:18;15.25;;;2.10;;
9801;SDS011;4940;50.900;4.672;2022-11-23T00:30:50;9.05;;;1.73;;
9801;SDS011;4940;50.900;4.672;2022-11-23T00:33:17;5.50;;;1.65;;
9801;SDS011;4940;50.900;4.672;2022-11-23T00:35:44;4.10;;;1.55;;
9801;SDS011;4940;50.900;4.672;2022-11-23T00:38:12;8.73;;;1.50;;
9801;SDS011;4940;50.900;4.672;2022-11-23T00:40:39;7.70;;;1.60;;
9801;SDS011;4940;50.900;4.672;2022-11-23T00:43:06;8.48;;;1.50;;
9801;SDS011;4940;50.900;4.672;2022-11-23T00:45:34;7.53;;;1.55;;
9801;SDS011;4940;50.900;4.672;2022-11-23T00:48:03;5.47;;;1.50;;
9801;SDS011;4940;50.900;4.672;2022-11-23T00:50:30;13.13;;;1.90;;
9801;SDS011;4940;50.900;4.672;2022-11-23T00:52:58;5.65;;;1.58;;
9801;SDS011;4940;50.900;4.672;2022-11-23T00:55:25;5.53;;;1.77;;
9801;SDS011;4940;50.900;4.672;2022-11-23T00:57:52;8.15;;;1.67;;
9801;SDS011;4940;50.900;4.672;2022-11-23T01:00:20;7.57;;;1.48;;
9801;SDS011;4940;50.900;4.672;2022-11-23T01:02:47;5.72;;;1.50;;
9801;SDS011;4940;50.900;4.672;2022-11-23T01:05:16;8.25;;;1.85;;
9801;SDS011;4940;50.900;4.672;2022-11-23T01:07:43;5.55;;;1.42;;
9801;SDS011;4940;50.900;4.672;2022-11-23T01:10:11;7.03;;;1.38;;
9801;SDS011;4940;50.900;4.672;2022-11-23T01:12:38;5.68;;;1.42;;
9801;SDS011;4940;50.900;4.672;2022-11-23T01:15:06;8.20;;;1.27;;
9801;SDS011;4940;50.900;4.672;2022-11-23T01:17:34;8.85;;;1.38;;
9801;SDS011;4940;50.900;4.672;2022-11-23T01:20:01;10.70;;;1.40;;
9801;SDS011;4940;50.900;4.672;2022-11-23T01:22:30;6.60;;;1.60;;
9801;SDS011;4940;50.900;4.672;2022-11-23T01:24:57;5.88;;;1.83;;
9801;SDS011;4940;50.900;4.672;2022-11-23T01:27:24;12.60;;;1.60;;
9801;SDS011;4940;50.900;4.672;2022-11-23T01:29:52;7.68;;;1.83;;
9801;SDS011;4940;50.900;4.672;2022-11-23T01:32:19;6.47;;;1.80;;
9801;SDS011;4940;50.900;4.672;2022-11-23T01:34:47;4.78;;;1.60;;
9801;SDS011;4940;50.900;4.672;2022-11-23T01:37:14;7.80;;;1.38;;
9801;SDS011;4940;50.900;4.672;2022-11-23T01:39:43;8.95;;;1.58;;
9801;SDS011;4940;50.900;4.672;2022-11-23T01:42:10;5.15;;;1.30;;
9801;SDS011;4940;50.900;4.672;2022-11-23T01:44:39;8.77;;;1.52;;
9801;SDS011;4940;50.900;4.672;2022-11-23T01:47:07;13.38;;;1.88;;
9801;SDS011;4940;50.900;4.672;2022-11-23T01:49:35;10.52;;;1.65;;
9801;SDS011;4940;50.900;4.672;2022-11-23T01:52:06;6.68;;;1.52;;
9801;SDS011;4940;50.900;4.672;2022-11-23T01:54:37;7.55;;;1.70;;
9801;SDS011;4940;50.900;4.672;2022-11-23T01:57:10;7.85;;;1.60;;
9801;SDS011;4940;50.900;4.672;2022-11-23T01:59:42;5.07;;;1.50;;
9801;SDS011;4940;50.900;4.672;2022-11-23T02:02:09;6.43;;;1.73;;
9801;SDS011;4940;50.900;4.672;2022-11-23T02:04:38;4.93;;;1.25;;
9801;SDS011;4940;50.900;4.672;2022-11-23T02:07:08;9.80;;;1.80;;
9801;SDS011;4940;50.900;4.672;2022-11-23T02:09:37;8.10;;;1.88;;
9801;SDS011;4940;50.900;4.672;2022-11-23T02:12:06;7.20;;;1.38;;
9801;SDS011;4940;50.900;4.672;2022-11-23T02:14:37;10.85;;;1.50;;
9801;SDS011;4940;50.900;4.672;2022-11-23T02:17:04;10.05;;;1.98;;
9801;SDS011;4940;50.900;4.672;2022-11-23T02:19:33;6.07;;;1.50;;
9801;SDS011;4940;50.900;4.672;2022-11-23T02:22:09;10.18;;;1.55;;
9801;SDS011;4940;50.900;4.672;2022-11-23T02:24:40;5.90;;;1.48;;
9801;SDS011;4940;50.900;4.672;2022-11-23T02:27:15;14.02;;;1.67;;
9801;SDS011;4940;50.900;4.672;2022-11-23T02:29:43;8.25;;;1.48;;
9801;SDS011;4940;50.900;4.672;2022-11-23T02:32:10;9.52;;;1.77;;
9801;SDS011;4940;50.900;4.672;2022-11-23T02:34:38;7.55;;;1.65;;
9801;SDS011;4940;50.900;4.672;2022-11-23T02:37:05;4.40;;;1.67;;
9801;SDS011;4940;50.900;4.672;2022-11-23T02:39:33;7.75;;;1.70;;
9801;SDS011;4940;50.900;4.672;2022-11-23T02:42:03;7.07;;;1.25;;
9801;SDS011;4940;50.900;4.672;2022-11-23T02:44:36;8.65;;;2.05;;
9801;SDS011;4940;50.900;4.672;2022-11-23T02:47:08;7.70;;;1.70;;
9801;SDS011;4940;50.900;4.672;2022-11-23T02:49:36;7.18;;;1.50;;
9801;SDS011;4940;50.900;4.672;2022-11-23T02:52:05;6.05;;;1.60;;
9801;SDS011;4940;50.900;4.672;2022-11-23T02:54:33;9.63;;;1.30;;
9801;SDS011;4940;50.900;4.672;2022-11-23T02:57:00;5.35;;;1.17;;
9801;SDS011;4940;50.900;4.672;2022-11-23T02:59:28;8.88;;;1.90;;
9801;SDS011;4940;50.900;4.672;2022-11-23T03:01:57;9.43;;;1.48;;
9801;SDS011;4940;50.900;4.672;2022-11-23T03:04:25;9.65;;;2.35;;
9801;SDS011;4940;50.900;4.672;2022-11-23T03:06:52;12.05;;;2.17;;
9801;SDS011;4940;50.900;4.672;2022-11-23T03:09:19;9.68;;;1.60;;
9801;SDS011;4940;50.900;4.672;2022-11-23T03:11:47;11.65;;;2.10;;
9801;SDS011;4940;50.900;4.672;2022-11-23T03:14:15;11.40;;;1.80;;
9801;SDS011;4940;50.900;4.672;2022-11-23T03:16:42;10.32;;;1.80;;
9801;SDS011;4940;50.900;4.672;2022-11-23T03:19:11;9.20;;;2.03;;
9801;SDS011;4940;50.900;4.672;2022-11-23T03:21:38;9.43;;;2.17;;
9801;SDS011;4940;50.900;4.672;2022-11-23T03:24:06;11.48;;;1.92;;
9801;SDS011;4940;50.900;4.672;2022-11-23T03:26:33;11.75;;;1.70;;
9801;SDS011;4940;50.900;4.672;2022-11-23T03:29:00;13.25;;;1.98;;
9801;SDS011;4940;50.900;4.672;2022-11-23T03:31:28;7.45;;;1.83;;
9801;SDS011;4940;50.900;4.672;2022-11-23T03:33:55;7.45;;;1.50;;
9801;SDS011;4940;50.900;4.672;2022-11-23T03:36:24;12.35;;;2.30;;
9801;SDS011;4940;50.900;4.672;2022-11-23T03:38:51;8.40;;;1.90;;
9801;SDS011;4940;50.900;4.672;2022-11-23T03:41:18;13.27;;;2.00;;
9801;SDS011;4940;50.900;4.672;2022-11-23T03:43:46;6.15;;;1.83;;
9801;SDS011;4940;50.900;4.672;2022-11-23T03:46:13;8.35;;;1.63;;
9801;SDS011;4940;50.900;4.672;2022-11-23T03:48:40;13.80;;;2.20;;
9801;SDS011;4940;50.900;4.672;2022-11-23T03:51:08;10.07;;;2.25;;
9801;SDS011;4940;50.900;4.672;2022-11-23T03:53:36;8.10;;;1.92;;
9801;SDS011;4940;50.900;4.672;2022-11-23T03:56:04;4.93;;;2.03;;
9801;SDS011;4940;50.900;4.672;2022-11-23T03:58:31;10.10;;;2.05;;
9801;SDS011;4940;50.900;4.672;2022-11-23T04:00:59;10.00;;;2.05;;
9801;SDS011;4940;50.900;4.672;2022-11-23T04:03:26;14.05;;;2.25;;
9801;SDS011;4940;50.900;4.672;2022-11-23T04:05:54;9.88;;;1.88;;
9801;SDS011;4940;50.900;4.672;2022-11-23T04:08:21;12.07;;;2.33;;
9801;SDS011;4940;50.900;4.672;2022-11-23T04:10:50;6.20;;;1.50;;
9801;SDS011;4940;50.900;4.672;2022-11-23T04:13:17;10.57;;;2.33;;
9801;SDS011;4940;50.900;4.672;2022-11-23T04:15:44;6.65;;;1.52;;
9801;SDS011;4940;50.900;4.672;2022-11-23T04:18:12;10.98;;;2.00;;
9801;SDS011;4940;50.900;4.672;2022-11-23T04:20:39;10.68;;;1.73;;
9801;SDS011;4940;50.900;4.672;2022-11-23T04:23:07;12.75;;;1.88;;
9801;SDS011;4940;50.900;4.672;2022-11-23T04:25:34;12.68;;;1.88;;
9801;SDS011;4940;50.900;4.672;2022-11-23T04:28:02;12.18;;;1.92;;
9801;SDS011;4940;50.900;4.672;2022-11-23T04:30:30;9.55;;;1.55;;
9801;SDS011;4940;50.900;4.672;2022-11-23T04:32:57;11.60;;;1.98;;
9801;SDS011;4940;50.900;4.672;2022-11-23T04:35:24;8.25;;;1.90;;
9801;SDS011;4940;50.900;4.672;2022-11-23T04:37:52;8.25;;;1.23;;
9801;SDS011;4940;50.900;4.672;2022-11-23T04:40:19;7.80;;;1.73;;
9801;SDS011;4940;50.900;4.672;2022-11-23T04:42:46;12.95;;;1.80;;
9801;SDS011;4940;50.900;4.672;2022-11-23T04:45:16;8.95;;;1.98;;
9801;SDS011;4940;50.900;4.672;2022-11-23T04:47:43;12.13;;;1.85;;
9801;SDS011;4940;50.900;4.672;2022-11-23T04:50:10;6.55;;;1.58;;
9801;SDS011;4940;50.900;4.672;2022-11-23T04:52:37;15.65;;;2.72;;
9801;SDS011;4940;50.900;4.672;2022-11-23T04:55:05;12.68;;;1.90;;
9801;SDS011;4940;50.900;4.672;2022-11-23T04:57:32;8.10;;;1.70;;
9801;SDS011;4940;50.900;4.672;2022-11-23T05:00:00;6.53;;;1.92;;
9801;SDS011;4940;50.900;4.672;2022-11-23T05:02:30;8.32;;;1.42;;
9801;SDS011;4940;50.900;4.672;2022-11-23T05:04:57;8.57;;;1.75;;
9801;SDS011;4940;50.900;4.672;2022-11-23T05:07:25;9.15;;;1.70;;
9801;SDS011;4940;50.900;4.672;2022-11-23T05:09:52;7.28;;;1.42;;
9801;SDS011;4940;50.900;4.672;2022-11-23T05:12:19;8.15;;;1.40;;
9801;SDS011;4940;50.900;4.672;2022-11-23T05:14:47;8.32;;;2.00;;
9801;SDS011;4940;50.900;4.672;2022-11-23T05:17:14;7.80;;;1.98;;
9801;SDS011;4940;50.900;4.672;2022-11-23T05:19:43;5.20;;;1.50;;
9801;SDS011;4940;50.900;4.672;2022-11-23T05:22:10;6.40;;;1.55;;
9801;SDS011;4940;50.900;4.672;2022-11-23T05:24:38;8.02;;;1.60;;
9801;SDS011;4940;50.900;4.672;2022-11-23T05:27:05;16.83;;;2.35;;
9801;SDS011;4940;50.900;4.672;2022-11-23T05:29:33;5.78;;;1.40;;
9801;SDS011;4940;50.900;4.672;2022-11-23T05:32:00;7.40;;;1.60;;
9801;SDS011;4940;50.900;4.672;2022-11-23T05:34:27;7.93;;;2.13;;
9801;SDS011;4940;50.900;4.672;2022-11-23T05:36:56;13.20;;;2.22;;
9801;SDS011;4940;50.900;4.672;2022-11-23T05:39:23;6.28;;;1.40;;
9801;SDS011;4940;50.900;4.672;2022-11-23T05:41:50;8.93;;;1.70;;
9801;SDS011;4940;50.900;4.672;2022-11-23T05:44:18;7.13;;;1.90;;
9801;SDS011;4940;50.900;4.672;2022-11-23T05:46:45;12.30;;;2.00;;
9801;SDS011;4940;50.900;4.672;2022-11-23T05:49:12;8.77;;;1.92;;
9801;SDS011;4940;50.900;4.672;2022-11-23T05:51:40;8.18;;;1.75;;
9801;SDS011;4940;50.900;4.672;2022-11-23T05:54:08;9.98;;;1.75;;
9801;SDS011;4940;50.900;4.672;2022-11-23T05:56:36;8.60;;;1.90;;
9801;SDS011;4940;50.900;4.672;2022-11-23T05:59:03;9.75;;;1.83;;
9801;SDS011;4940;50.900;4.672;2022-11-23T06:01:30;7.82;;;1.73;;
9801;SDS011;4940;50.900;4.672;2022-11-23T06:03:58;15.48;;;2.65;;
9801;SDS011;4940;50.900;4.672;2022-11-23T06:06:26;9.93;;;2.10;;
9801;SDS011;4940;50.900;4.672;2022-11-23T06:08:53;5.65;;;1.48;;
9801;SDS011;4940;50.900;4.672;2022-11-23T06:11:22;10.43;;;1.33;;
9801;SDS011;4940;50.900;4.672;2022-11-23T06:13:49;5.97;;;1.67;;
9801;SDS011;4940;50.900;4.672;2022-11-23T06:16:17;8.07;;;1.67;;
9801;SDS011;4940;50.900;4.672;2022-11-23T06:18:44;7.05;;;1.48;;
9801;SDS011;4940;50.900;4.672;2022-11-23T06:21:11;10.20;;;1.33;;
9801;SDS011;4940;50.900;4.672;2022-11-23T06:23:38;11.45;;;1.60;;
9801;SDS011;4940;50.900;4.672;2022-11-23T06:26:06;7.07;;;1.42;;
9801;SDS011;4940;50.900;4.672;2022-11-23T06:28:35;9.18;;;1.75;;
9801;SDS011;4940;50.900;4.672;2022-11-23T06:31:03;9.70;;;1.63;;
9801;SDS011;4940;50.900;4.672;2022-11-23T06:33:31;7.45;;;1.58;;
9801;SDS011;4940;50.900;4.672;2022-11-23T06:35:59;10.30;;;1.63;;
9801;SDS011;4940;50.900;4.672;2022-11-23T06:38:27;10.23;;;1.70;;
9801;SDS011;4940;50.900;4.672;2022-11-23T06:40:56;9.77;;;1.38;;
9801;SDS011;4940;50.900;4.672;2022-11-23T06:43:24;7.40;;;1.90;;
9801;SDS011;4940;50.900;4.672;2022-11-23T06:45:53;8.05;;;2.05;;
9801;SDS011;4940;50.900;4.672;2022-11-23T06:48:21;9.85;;;1.88;;
9801;SDS011;4940;50.900;4.672;2022-11-23T06:50:49;6.70;;;1.73;;
9801;SDS011;4940;50.900;4.672;2022-11-23T06:53:16;13.60;;;1.88;;
9801;SDS011;4940;50.900;4.672;2022-11-23T06:55:43;6.60;;;1.75;;
9801;SDS011;4940;50.900;4.672;2022-11-23T06:58:11;7.90;;;1.57;;
9801;SDS011;4940;50.900;4.672;2022-11-23T07:00:38;9.90;;;1.60;;
9801;SDS011;4940;50.900;4.672;2022-11-23T07:03:09;6.88;;;1.35;;
9801;SDS011;4940;50.900;4.672;2022-11-23T07:05:43;7.22;;;1.70;;
9801;SDS011;4940;50.900;4.672;2022-11-23T07:08:11;12.05;;;1.83;;
9801;SDS011;4940;50.900;4.672;2022-11-23T07:10:38;4.72;;;1.23;;
9801;SDS011;4940;50.900;4.672;2022-11-23T07:13:06;7.03;;;2.15;;
9801;SDS011;4940;50.900;4.672;2022-11-23T07:15:34;14.77;;;2.17;;
9801;SDS011;4940;50.900;4.672;2022-11-23T07:18:01;7.60;;;1.70;;
9801;SDS011;4940;50.900;4.672;2022-11-23T07:20:30;7.67;;;1.77;;
9801;SDS011;4940;50.900;4.672;2022-11-23T07:22:58;6.10;;;1.53;;
9801;SDS011;4940;50.900;4.672;2022-11-23T07:25:26;9.73;;;1.80;;
9801;SDS011;4940;50.900;4.672;2022-11-23T07:27:54;10.10;;;1.95;;
9801;SDS011;4940;50.900;4.672;2022-11-23T07:30:22;7.70;;;1.88;;
9801;SDS011;4940;50.900;4.672;2022-11-23T07:32:50;10.30;;;2.00;;
9801;SDS011;4940;50.900;4.672;2022-11-23T07:35:17;10.35;;;2.20;;
9801;SDS011;4940;50.900;4.672;2022-11-23T07:37:46;12.63;;;1.90;;
9801;SDS011;4940;50.900;4.672;2022-11-23T07:40:13;6.13;;;1.65;;
9801;SDS011;4940;50.900;4.672;2022-11-23T07:42:41;8.43;;;1.87;;
9801;SDS011;4940;50.900;4.672;2022-11-23T07:45:08;5.68;;;1.80;;
9801;SDS011;4940;50.900;4.672;2022-11-23T07:47:37;6.38;;;2.00;;
9801;SDS011;4940;50.900;4.672;2022-11-23T07:50:05;8.40;;;1.85;;
9801;SDS011;4940;50.900;4.672;2022-11-23T07:52:35;12.48;;;2.08;;
9801;SDS011;4940;50.900;4.672;2022-11-23T07:55:04;9.63;;;1.90;;
9801;SDS011;4940;50.900;4.672;2022-11-23T07:57:32;5.68;;;1.90;;
9801;SDS011;4940;50.900;4.672;2022-11-23T07:59:59;5.70;;;2.13;;
9801;SDS011;4940;50.900;4.672;2022-11-23T08:02:27;3.45;;;1.63;;
9801;SDS011;4940;50.900;4.672;2022-11-23T08:04:54;9.23;;;1.80;;
9801;SDS011;4940;50.900;4.672;2022-11-23T08:07:22;12.05;;;2.17;;
9801;SDS011;4940;50.900;4.672;2022-11-23T08:09:49;5.65;;;2.08;;
9801;SDS011;4940;50.900;4.672;2022-11-23T08:12:18;6.80;;;1.70;;
9801;SDS011;4940;50.900;4.672;2022-11-23T08:14:45;5.80;;;1.77;;
9801;SDS011;4940;50.900;4.672;2022-11-23T08:17:13;5.97;;;2.20;;
9801;SDS011;4940;50.900;4.672;2022-11-23T08:19:40;10.05;;;2.15;;
9801;SDS011;4940;50.900;4.672;2022-11-23T08:22:07;7.70;;;1.88;;
9801;SDS011;4940;50.900;4.672;2022-11-23T08:24:35;7.00;;;1.80;;
9801;SDS011;4940;50.900;4.672;2022-11-23T08:27:02;14.65;;;2.30;;
9801;SDS011;4940;50.900;4.672;2022-11-23T08:29:31;11.60;;;2.08;;
9801;SDS011;4940;50.900;4.672;2022-11-23T08:31:58;11.60;;;1.73;;
9801;SDS011;4940;50.900;4.672;2022-11-23T08:34:25;6.43;;;2.00;;
9801;SDS011;4940;50.900;4.672;2022-11-23T08:36:53;7.63;;;1.80;;
9801;SDS011;4940;50.900;4.672;2022-11-23T08:39:20;7.93;;;1.98;;
9801;SDS011;4940;50.900;4.672;2022-11-23T08:41:48;8.18;;;1.95;;
9801;SDS011;4940;50.900;4.672;2022-11-23T08:44:15;10.23;;;2.05;;
9801;SDS011;4940;50.900;4.672;2022-11-23T08:46:44;5.82;;;1.83;;
9801;SDS011;4940;50.900;4.672;2022-11-23T08:49:11;8.82;;;1.80;;
9801;SDS011;4940;50.900;4.672;2022-11-23T08:51:39;6.35;;;1.63;;
9801;SDS011;4940;50.900;4.672;2022-11-23T08:54:06;8.75;;;1.85;;
9801;SDS011;4940;50.900;4.672;2022-11-23T08:56:33;5.13;;;1.52;;
9801;SDS011;4940;50.900;4.672;2022-11-23T08:59:01;4.60;;;1.35;;
9801;SDS011;4940;50.900;4.672;2022-11-23T09:01:28;5.38;;;1.50;;
9801;SDS011;4940;50.900;4.672;2022-11-23T09:03:57;6.88;;;1.80;;
9801;SDS011;4940;50.900;4.672;2022-11-23T09:06:24;5.50;;;1.70;;
9801;SDS011;4940;50.900;4.672;2022-11-23T09:08:53;5.85;;;1.60;;
9801;SDS011;4940;50.900;4.672;2022-11-23T09:11:21;6.07;;;1.60;;
9801;SDS011;4940;50.900;4.672;2022-11-23T09:13:49;5.40;;;1.50;;
9801;SDS011;4940;50.900;4.672;2022-11-23T09:16:17;5.97;;;1.60;;
9801;SDS011;4940;50.900;4.672;2022-11-23T09:18:45;7.00;;;1.90;;
9801;SDS011;4940;50.900;4.672;2022-11-23T09:21:15;5.55;;;1.33;;
9801;SDS011;4940;50.900;4.672;2022-11-23T09:23:42;3.70;;;1.17;;
9801;SDS011;4940;50.900;4.672;2022-11-23T09:26:09;6.00;;;1.77;;
9801;SDS011;4940;50.900;4.672;2022-11-23T09:28:37;3.90;;;1.50;;
9801;SDS011;4940;50.900;4.672;2022-11-23T09:31:04;3.63;;;1.55;;
9801;SDS011;4940;50.900;4.672;2022-11-23T09:33:31;5.30;;;1.50;;
9801;SDS011;4940;50.900;4.672;2022-11-23T09:35:59;4.82;;;1.17;;
9801;SDS011;4940;50.900;4.672;2022-11-23T09:38:28;4.85;;;1.20;;
9801;SDS011;4940;50.900;4.672;2022-11-23T09:40:57;4.25;;;1.42;;
9801;SDS011;4940;50.900;4.672;2022-11-23T09:43:44;5.35;;;1.45;;
9801;SDS011;4940;50.900;4.672;2022-11-23T09:46:24;7.63;;;1.50;;
9801;SDS011;4940;50.900;4.672;2022-11-23T09:49:07;6.53;;;1.30;;
9801;SDS011;4940;50.900;4.672;2022-11-23T09:51:38;4.82;;;1.30;;
9801;SDS011;4940;50.900;4.672;2022-11-23T09:54:10;2.45;;;1.10;;
9801;SDS011;4940;50.900;4.672;2022-11-23T09:56:48;6.15;;;1.48;;
9801;SDS011;4940;50.900;4.672;2022-11-23T09:59:21;3.78;;;1.20;;
9801;SDS011;4940;50.900;4.672;2022-11-23T10:01:57;3.72;;;1.42;;
9801;SDS011;4940;50.900;4.672;2022-11-23T10:04:25;6.00;;;1.83;;
9801;SDS011;4940;50.900;4.672;2022-11-23T10:07:02;7.47;;;1.73;;
9801;SDS011;4940;50.900;4.672;2022-11-23T10:09:44;7.03;;;1.30;;
9801;SDS011;4940;50.900;4.672;2022-11-23T10:12:23;5.05;;;1.33;;
9801;SDS011;4940;50.900;4.672;2022-11-23T10:15:03;6.13;;;1.50;;
9801;SDS011;4940;50.900;4.672;2022-11-23T10:17:50;7.22;;;1.60;;
9801;SDS011;4940;50.900;4.672;2022-11-23T10:20:37;7.70;;;1.50;;
9801;SDS011;4940;50.900;4.672;2022-11-23T10:26:28;8.73;;;1.60;;
9801;SDS011;4940;50.900;4.672;2022-11-23T10:29:05;5.30;;;1.52;;
9801;SDS011;4940;50.900;4.672;2022-11-23T10:31:38;3.95;;;1.33;;
9801;SDS011;4940;50.900;4.672;2022-11-23T10:34:09;3.67;;;1.15;;
9801;SDS011;4940;50.900;4.672;2022-11-23T10:36:38;3.38;;;1.60;;
9801;SDS011;4940;50.900;4.672;2022-11-23T10:39:10;7.53;;;1.50;;
9801;SDS011;4940;50.900;4.672;2022-11-23T10:41:45;6.63;;;1.48;;
9801;SDS011;4940;50.900;4.672;2022-11-23T10:44:17;5.80;;;1.50;;
9801;SDS011;4940;50.900;4.672;2022-11-23T10:46:51;4.93;;;1.50;;
9801;SDS011;4940;50.900;4.672;2022-11-23T10:49:19;4.43;;;1.30;;
9801;SDS011;4940;50.900;4.672;2022-11-23T10:51:48;3.20;;;1.40;;
9801;SDS011;4940;50.900;4.672;2022-11-23T10:54:19;3.03;;;1.52;;
9801;SDS011;4940;50.900;4.672;2022-11-23T10:56:51;6.18;;;1.40;;
9801;SDS011;4940;50.900;4.672;2022-11-23T10:59:26;5.68;;;1.40;;
9801;SDS011;4940;50.900;4.672;2022-11-23T11:02:00;3.08;;;1.45;;
9801;SDS011;4940;50.900;4.672;2022-11-23T11:04:29;4.78;;;1.58;;
9801;SDS011;4940;50.900;4.672;2022-11-23T11:07:08;7.63;;;1.50;;
9801;SDS011;4940;50.900;4.672;2022-11-23T11:09:46;5.13;;;1.58;;
9801;SDS011;4940;50.900;4.672;2022-11-23T11:12:16;4.18;;;1.10;;
9801;SDS011;4940;50.900;4.672;2022-11-23T11:14:53;3.85;;;1.10;;
9801;SDS011;4940;50.900;4.672;2022-11-23T11:17:28;2.35;;;0.95;;
9801;SDS011;4940;50.900;4.672;2022-11-23T11:19:57;4.82;;;1.13;;
9801;SDS011;4940;50.900;4.672;2022-11-23T11:22:25;5.82;;;1.00;;
9801;SDS011;4940;50.900;4.672;2022-11-23T11:24:57;5.15;;;1.83;;
9801;SDS011;4940;50.900;4.672;2022-11-23T11:27:27;4.15;;;1.10;;
9801;SDS011;4940;50.900;4.672;2022-11-23T11:29:56;6.07;;;1.17;;
9801;SDS011;4940;50.900;4.672;2022-11-23T11:32:29;5.20;;;1.00;;
9801;SDS011;4940;50.900;4.672;2022-11-23T11:35:10;7.22;;;1.17;;
9801;SDS011;4940;50.900;4.672;2022-11-23T11:37:41;1.05;;;0.80;;
9801;SDS011;4940;50.900;4.672;2022-11-23T11:40:15;5.05;;;1.15;;
9801;SDS011;4940;50.900;4.672;2022-11-23T11:42:49;5.93;;;1.30;;
9801;SDS011;4940;50.900;4.672;2022-11-23T11:45:21;4.78;;;0.95;;
9801;SDS011;4940;50.900;4.672;2022-11-23T11:47:52;3.33;;;0.90;;
9801;SDS011;4940;50.900;4.672;2022-11-23T11:50:25;3.08;;;1.00;;
9801;SDS011;4940;50.900;4.672;2022-11-23T11:52:57;2.08;;;0.80;;
9801;SDS011;4940;50.900;4.672;2022-11-23T11:55:29;5.20;;;0.98;;
9801;SDS011;4940;50.900;4.672;2022-11-23T11:58:08;6.55;;;0.93;;
9801;SDS011;4940;50.900;4.672;2022-11-23T12:00:37;3.38;;;1.10;;
9801;SDS011;4940;50.900;4.672;2022-11-23T12:03:08;1.45;;;1.00;;
9801;SDS011;4940;50.900;4.672;2022-11-23T12:05:43;4.43;;;0.77;;
9801;SDS011;4940;50.900;4.672;2022-11-23T12:08:23;1.23;;;0.98;;
9801;SDS011;4940;50.900;4.672;2022-11-23T12:10:59;2.92;;;0.98;;
9801;SDS011;4940;50.900;4.672;2022-11-23T12:13:31;3.58;;;0.88;;
9801;SDS011;4940;50.900;4.672;2022-11-23T12:16:02;3.67;;;1.13;;
9801;SDS011;4940;50.900;4.672;2022-11-23T12:18:38;3.58;;;0.93;;
9801;SDS011;4940;50.900;4.672;2022-11-23T12:21:16;2.67;;;0.77;;
9801;SDS011;4940;50.900;4.672;2022-11-23T12:24:06;3.17;;;0.90;;
9801;SDS011;4940;50.900;4.672;2022-11-23T12:26:42;2.80;;;0.73;;
9801;SDS011;4940;50.900;4.672;2022-11-23T12:29:29;2.15;;;0.65;;
9801;SDS011;4940;50.900;4.672;2022-11-23T12:32:08;2.35;;;1.13;;
9801;SDS011;4940;50.900;4.672;2022-11-23T12:34:53;3.47;;;0.88;;
9801;SDS011;4940;50.900;4.672;2022-11-23T12:37:34;2.42;;;0.70;;
9801;SDS011;4940;50.900;4.672;2022-11-23T12:40:13;3.13;;;0.75;;
9801;SDS011;4940;50.900;4.672;2022-11-23T12:42:57;2.95;;;1.00;;
9801;SDS011;4940;50.900;4.672;2022-11-23T12:45:31;4.53;;;1.15;;
9801;SDS011;4940;50.900;4.672;2022-11-23T12:48:16;2.72;;;1.17;;
9801;SDS011;4940;50.900;4.672;2022-11-23T12:50:51;2.88;;;1.00;;
9801;SDS011;4940;50.900;4.672;2022-11-23T12:53:31;2.25;;;0.90;;
9801;SDS011;4940;50.900;4.672;2022-11-23T12:56:08;1.95;;;0.70;;
9801;SDS011;4940;50.900;4.672;2022-11-23T12:58:42;1.77;;;1.10;;
9801;SDS011;4940;50.900;4.672;2022-11-23T13:01:15;3.00;;;0.80;;
9801;SDS011;4940;50.900;4.672;2022-11-23T13:06:56;2.67;;;0.80;;
9801;SDS011;4940;50.900;4.672;2022-11-23T13:09:54;3.22;;;1.38;;
9801;SDS011;4940;50.900;4.672;2022-11-23T13:12:37;2.53;;;0.82;;
9801;SDS011;4940;50.900;4.672;2022-11-23T13:15:25;2.35;;;0.70;;
9801;SDS011;4940;50.900;4.672;2022-11-23T13:18:09;2.75;;;0.90;;
9801;SDS011;4940;50.900;4.672;2022-11-23T13:20:47;3.50;;;1.10;;
9801;SDS011;4940;50.900;4.672;2022-11-23T13:23:24;2.85;;;1.15;;
9801;SDS011;4940;50.900;4.672;2022-11-23T13:26:11;2.30;;;0.98;;
9801;SDS011;4940;50.900;4.672;2022-11-23T13:28:40;2.33;;;1.00;;
9801;SDS011;4940;50.900;4.672;2022-11-23T13:31:19;0.93;;;0.68;;
9801;SDS011;4940;50.900;4.672;2022-11-23T13:33:50;6.07;;;1.00;;
9801;SDS011;4940;50.900;4.672;2022-11-23T13:36:33;4.55;;;0.80;;
9801;SDS011;4940;50.900;4.672;2022-11-23T13:39:06;1.60;;;1.02;;
9801;SDS011;4940;50.900;4.672;2022-11-23T13:42:23;3.25;;;0.95;;
9801;SDS011;4940;50.900;4.672;2022-11-23T13:47:54;3.47;;;1.08;;
9801;SDS011;4940;50.900;4.672;2022-11-23T13:50:39;2.92;;;1.20;;
9801;SDS011;4940;50.900;4.672;2022-11-23T13:53:22;2.88;;;1.40;;
9801;SDS011;4940;50.900;4.672;2022-11-23T13:55:52;3.30;;;1.50;;
9801;SDS011;4940;50.900;4.672;2022-11-23T13:58:37;5.35;;;1.05;;
9801;SDS011;4940;50.900;4.672;2022-11-23T14:01:05;3.63;;;1.08;;
9801;SDS011;4940;50.900;4.672;2022-11-23T14:03:49;4.40;;;0.95;;
9801;SDS011;4940;50.900;4.672;2022-11-23T14:06:23;2.42;;;0.68;;
9801;SDS011;4940;50.900;4.672;2022-11-23T14:08:57;3.45;;;1.13;;
9801;SDS011;4940;50.900;4.672;2022-11-23T14:11:28;5.97;;;1.23;;
9801;SDS011;4940;50.900;4.672;2022-11-23T14:14:00;1.27;;;1.08;;
9801;SDS011;4940;50.900;4.672;2022-11-23T14:16:36;8.57;;;1.15;;
9801;SDS011;4940;50.900;4.672;2022-11-23T14:19:22;1.00;;;0.73;;
9801;SDS011;4940;50.900;4.672;2022-11-23T14:22:01;3.70;;;1.08;;
9801;SDS011;4940;50.900;4.672;2022-11-23T14:24:39;2.30;;;1.05;;
9801;SDS011;4940;50.900;4.672;2022-11-23T14:27:29;3.15;;;1.23;;
9801;SDS011;4940;50.900;4.672;2022-11-23T14:30:13;2.80;;;1.20;;
9801;SDS011;4940;50.900;4.672;2022-11-23T14:32:55;4.80;;;1.10;;
9801;SDS011;4940;50.900;4.672;2022-11-23T14:35:32;1.20;;;0.80;;
9801;SDS011;4940;50.900;4.672;2022-11-23T14:41:11;1.73;;;1.02;;
9801;SDS011;4940;50.900;4.672;2022-11-23T14:43:42;5.70;;;1.25;;
9801;SDS011;4940;50.900;4.672;2022-11-23T14:46:15;2.28;;;1.20;;
9801;SDS011;4940;50.900;4.672;2022-11-23T14:48:44;1.98;;;1.00;;
9801;SDS011;4940;50.900;4.672;2022-11-23T14:51:13;3.25;;;1.00;;
9801;SDS011;4940;50.900;4.672;2022-11-23T14:53:45;2.92;;;0.90;;
9801;SDS011;4940;50.900;4.672;2022-11-23T14:56:19;1.75;;;0.98;;
9801;SDS011;4940;50.900;4.672;2022-11-23T14:59:00;2.28;;;1.20;;
9801;SDS011;4940;50.900;4.672;2022-11-23T15:01:30;3.70;;;1.65;;
9801;SDS011;4940;50.900;4.672;2022-11-23T15:04:05;4.57;;;1.40;;
9801;SDS011;4940;50.900;4.672;2022-11-23T15:06:35;2.58;;;1.23;;
9801;SDS011;4940;50.900;4.672;2022-11-23T15:09:11;3.42;;;1.20;;
9801;SDS011;4940;50.900;4.672;2022-11-23T15:11:42;1.48;;;1.10;;
9801;SDS011;4940;50.900;4.672;2022-11-23T15:14:16;1.80;;;1.08;;
9801;SDS011;4940;50.900;4.672;2022-11-23T15:16:45;1.55;;;0.98;;
9801;SDS011;4940;50.900;4.672;2022-11-23T15:19:24;2.42;;;1.20;;
9801;SDS011;4940;50.900;4.672;2022-11-23T15:21:53;2.95;;;1.10;;
9801;SDS011;4940;50.900;4.672;2022-11-23T15:24:22;3.00;;;1.00;;
9801;SDS011;4940;50.900;4.672;2022-11-23T15:26:51;5.80;;;1.10;;
9801;SDS011;4940;50.900;4.672;2022-11-23T15:29:28;2.42;;;1.30;;
9801;SDS011;4940;50.900;4.672;2022-11-23T15:31:57;2.50;;;1.20;;
9801;SDS011;4940;50.900;4.672;2022-11-23T15:34:24;2.67;;;1.67;;
9801;SDS011;4940;50.900;4.672;2022-11-23T15:36:52;1.42;;;1.00;;
9801;SDS011;4940;50.900;4.672;2022-11-23T15:39:20;4.72;;;1.40;;
9801;SDS011;4940;50.900;4.672;2022-11-23T15:41:50;2.50;;;1.30;;
9801;SDS011;4940;50.900;4.672;2022-11-23T15:44:21;1.25;;;1.00;;
9801;SDS011;4940;50.900;4.672;2022-11-23T15:46:50;3.58;;;1.52;;